VOBG/BLR METAR and TAF weather

Enter ICAO airport designator
Station Type Date Time Source
VOBG METAR 2020/09/22 08:00 UTC NOAA

VOBG 220800Z 25008KT 8000 FEW010 BKN012 26/20 Q1009 NOSIG


Station Type Date Time Source
VOBG Decoded METAR 2020/09/22 08:00 UTC NOAA

Bangalore / Hindustan, India (VOBG) 12-57N 077-40E
Sep 22, 2020 - 04:00 AM EDT / 2020.09.22 0800 UTC
Wind: from the WSW (250 degrees) at 9 MPH (8 KT):0
Visibility: 4 mile(s):0
Sky conditions: mostly cloudy
Temperature: 78 F (26 C)
Dew Point: 68 F (20 C)
Relative Humidity: 69%
Pressure (altimeter): 29.80 in. Hg (1009 hPa)
ob: VOBG 220800Z 25008KT 8000 FEW010 BKN012 26/20 Q1009 NOSIG
cycle: 8

Station Type Date Time Source
VOBG TAF 2020/09/21 12:00 UTC NOAA

TAF VOBG 211100Z 2112/2121 27010G20KT 6000 SCT012 BKN080
TEMPO 2112/2118 3000 RA DZ SCT008 SCT012 BKN080

Example: see airport list